sensor_id;sensor_type;location;lat;lon;timestamp;pressure;altitude;pressure_sealevel;temperature;humidity
32747;BME280;19118;50.860;13.662;2023-02-28T00:00:32;98058.41;;;-3.19;100.00
32747;BME280;19118;50.860;13.662;2023-02-28T00:05:32;98057.66;;;-3.06;100.00
32747;BME280;19118;50.860;13.662;2023-02-28T00:10:33;98068.75;;;-3.19;100.00
32747;BME280;19118;50.860;13.662;2023-02-28T00:15:34;98061.91;;;-3.20;100.00
32747;BME280;19118;50.860;13.662;2023-02-28T00:20:34;98063.25;;;-3.29;100.00
32747;BME280;19118;50.860;13.662;2023-02-28T00:25:35;98055.44;;;-3.28;100.00
32747;BME280;19118;50.860;13.662;2023-02-28T00:30:35;98057.59;;;-3.36;100.00
32747;BME280;19118;50.860;13.662;2023-02-28T00:35:38;98054.25;;;-3.22;100.00
32747;BME280;19118;50.860;13.662;2023-02-28T00:40:39;98049.94;;;-3.07;100.00
32747;BME280;19118;50.860;13.662;2023-02-28T00:45:39;98050.53;;;-3.02;100.00
32747;BME280;19118;50.860;13.662;2023-02-28T00:50:39;98049.13;;;-3.08;100.00
32747;BME280;19118;50.860;13.662;2023-02-28T00:55:40;98054.56;;;-3.12;100.00
32747;BME280;19118;50.860;13.662;2023-02-28T01:00:40;98051.94;;;-3.27;100.00
32747;BME280;19118;50.860;13.662;2023-02-28T01:05:40;98043.28;;;-3.57;100.00
32747;BME280;19118;50.860;13.662;2023-02-28T01:10:42;98048.94;;;-3.66;100.00
32747;BME280;19118;50.860;13.662;2023-02-28T01:15:46;98050.66;;;-3.98;100.00
32747;BME280;19118;50.860;13.662;2023-02-28T01:20:49;98045.38;;;-4.28;100.00
32747;BME280;19118;50.860;13.662;2023-02-28T01:25:51;98047.53;;;-4.36;100.00
32747;BME280;19118;50.860;13.662;2023-02-28T01:30:51;98047.53;;;-4.36;100.00
32747;BME280;19118;50.860;13.662;2023-02-28T01:35:59;98041.53;;;-4.21;100.00
32747;BME280;19118;50.860;13.662;2023-02-28T01:40:59;98047.06;;;-4.12;100.00
32747;BME280;19118;50.860;13.662;2023-02-28T01:46:00;98047.06;;;-4.12;100.00
32747;BME280;19118;50.860;13.662;2023-02-28T01:51:08;98042.09;;;-3.99;100.00
32747;BME280;19118;50.860;13.662;2023-02-28T01:56:12;98037.09;;;-4.02;100.00
32747;BME280;19118;50.860;13.662;2023-02-28T02:01:21;98034.75;;;-3.91;100.00
32747;BME280;19118;50.860;13.662;2023-02-28T02:06:25;98024.59;;;-3.94;100.00
32747;BME280;19118;50.860;13.662;2023-02-28T02:11:26;98023.25;;;-4.01;100.00
32747;BME280;19118;50.860;13.662;2023-02-28T02:22:01;98023.03;;;-3.81;100.00
32747;BME280;19118;50.860;13.662;2023-02-28T02:38:38;98017.50;;;-3.90;100.00
32747;BME280;19118;50.860;13.662;2023-02-28T02:43:46;98024.88;;;-3.83;100.00
32747;BME280;19118;50.860;13.662;2023-02-28T02:48:49;98027.69;;;-3.87;100.00
32747;BME280;19118;50.860;13.662;2023-02-28T02:53:55;98025.78;;;-3.84;100.00
32747;BME280;19118;50.860;13.662;2023-02-28T02:59:02;98027.94;;;-3.92;100.00
32747;BME280;19118;50.860;13.662;2023-02-28T03:04:07;98027.59;;;-3.86;100.00
32747;BME280;19118;50.860;13.662;2023-02-28T03:09:08;98027.75;;;-3.89;100.00
32747;BME280;19118;50.860;13.662;2023-02-28T03:29:46;98024.47;;;-4.24;100.00
32747;BME280;19118;50.860;13.662;2023-02-28T03:35:11;98021.38;;;-4.30;100.00
32747;BME280;19118;50.860;13.662;2023-02-28T03:40:17;98018.88;;;-4.32;100.00
32747;BME280;19118;50.860;13.662;2023-02-28T03:45:21;98021.19;;;-4.43;100.00
32747;BME280;19118;50.860;13.662;2023-02-28T03:50:27;98021.03;;;-4.40;100.00
32747;BME280;19118;50.860;13.662;2023-02-28T03:55:34;98028.88;;;-4.42;100.00
32747;BME280;19118;50.860;13.662;2023-02-28T04:00:42;98024.66;;;-4.60;100.00
32747;BME280;19118;50.860;13.662;2023-02-28T04:05:54;98032.84;;;-4.69;100.00
32747;BME280;19118;50.860;13.662;2023-02-28T04:11:04;98039.91;;;-4.73;100.00
32747;BME280;19118;50.860;13.662;2023-02-28T04:16:07;98045.00;;;-4.71;100.00
32747;BME280;19118;50.860;13.662;2023-02-28T04:21:12;98029.97;;;-4.63;100.00
32747;BME280;19118;50.860;13.662;2023-02-28T04:26:12;98037.56;;;-4.77;100.00
32747;BME280;19118;50.860;13.662;2023-02-28T04:31:12;98049.72;;;-4.96;100.00
32747;BME280;19118;50.860;13.662;2023-02-28T04:36:13;98042.88;;;-5.15;100.00
32747;BME280;19118;50.860;13.662;2023-02-28T04:41:15;98045.88;;;-5.41;100.00
32747;BME280;19118;50.860;13.662;2023-02-28T04:46:15;98046.88;;;-5.63;100.00
32747;BME280;19118;50.860;13.662;2023-02-28T04:51:17;98059.28;;;-5.90;100.00
32747;BME280;19118;50.860;13.662;2023-02-28T04:56:19;98058.44;;;-6.28;100.00
32747;BME280;19118;50.860;13.662;2023-02-28T05:01:24;98065.06;;;-6.61;100.00
32747;BME280;19118;50.860;13.662;2023-02-28T05:06:26;98069.28;;;-6.81;100.00
32747;BME280;19118;50.860;13.662;2023-02-28T05:11:29;98072.13;;;-7.07;100.00
32747;BME280;19118;50.860;13.662;2023-02-28T05:16:33;98071.19;;;-7.26;100.00
32747;BME280;19118;50.860;13.662;2023-02-28T05:21:36;98080.03;;;-7.55;100.00
32747;BME280;19118;50.860;13.662;2023-02-28T05:26:41;98089.06;;;-7.67;100.00
32747;BME280;19118;50.860;13.662;2023-02-28T05:31:42;98088.13;;;-7.88;100.00
32747;BME280;19118;50.860;13.662;2023-02-28T05:36:43;98089.19;;;-7.94;100.00
32747;BME280;19118;50.860;13.662;2023-02-28T05:41:43;98086.84;;;-8.23;100.00
32747;BME280;19118;50.860;13.662;2023-02-28T05:46:43;98096.81;;;-8.37;100.00
32747;BME280;19118;50.860;13.662;2023-02-28T05:51:44;98091.09;;;-8.45;100.00
32747;BME280;19118;50.860;13.662;2023-02-28T05:56:44;98094.56;;;-8.46;100.00
32747;BME280;19118;50.860;13.662;2023-02-28T06:01:46;98099.56;;;-8.43;100.00
32747;BME280;19118;50.860;13.662;2023-02-28T06:06:49;98096.22;;;-8.45;100.00
32747;BME280;19118;50.860;13.662;2023-02-28T06:11:49;98098.09;;;-8.51;100.00
32747;BME280;19118;50.860;13.662;2023-02-28T06:16:50;98095.75;;;-8.57;100.00
32747;BME280;19118;50.860;13.662;2023-02-28T06:21:50;98104.91;;;-8.49;100.00
32747;BME280;19118;50.860;13.662;2023-02-28T06:26:52;98116.84;;;-8.48;100.00
32747;BME280;19118;50.860;13.662;2023-02-28T06:31:52;98118.31;;;-8.41;100.00
32747;BME280;19118;50.860;13.662;2023-02-28T06:36:53;98120.34;;;-8.28;100.00
32747;BME280;19118;50.860;13.662;2023-02-28T06:41:53;98126.44;;;-8.07;100.00
32747;BME280;19118;50.860;13.662;2023-02-28T06:46:54;98131.97;;;-7.94;100.00
32747;BME280;19118;50.860;13.662;2023-02-28T06:51:54;98147.38;;;-7.71;100.00
32747;BME280;19118;50.860;13.662;2023-02-28T06:56:54;98144.97;;;-7.52;100.00
32747;BME280;19118;50.860;13.662;2023-02-28T07:01:55;98153.59;;;-7.31;100.00
32747;BME280;19118;50.860;13.662;2023-02-28T07:06:55;98149.09;;;-7.26;100.00
32747;BME280;19118;50.860;13.662;2023-02-28T07:11:57;98152.34;;;-6.99;100.00
32747;BME280;19118;50.860;13.662;2023-02-28T07:16:57;98152.03;;;-6.71;100.00
32747;BME280;19118;50.860;13.662;2023-02-28T07:21:57;98161.31;;;-6.47;100.00
32747;BME280;19118;50.860;13.662;2023-02-28T07:26:58;98161.25;;;-6.25;100.00
32747;BME280;19118;50.860;13.662;2023-02-28T07:31:59;98155.78;;;-5.97;100.00
32747;BME280;19118;50.860;13.662;2023-02-28T07:36:59;98148.81;;;-5.57;100.00
32747;BME280;19118;50.860;13.662;2023-02-28T07:42:06;98151.88;;;-5.30;100.00
32747;BME280;19118;50.860;13.662;2023-02-28T07:47:10;98159.97;;;-5.02;100.00
32747;BME280;19118;50.860;13.662;2023-02-28T07:52:11;98159.44;;;-4.72;100.00
32747;BME280;19118;50.860;13.662;2023-02-28T07:57:11;98156.78;;;-4.36;100.00
32747;BME280;19118;50.860;13.662;2023-02-28T08:02:15;98158.19;;;-4.13;100.00
32747;BME280;19118;50.860;13.662;2023-02-28T08:07:18;98158.94;;;-3.94;100.00
32747;BME280;19118;50.860;13.662;2023-02-28T08:12:18;98158.47;;;-3.85;100.00
32747;BME280;19118;50.860;13.662;2023-02-28T08:17:19;98158.88;;;-3.76;100.00
32747;BME280;19118;50.860;13.662;2023-02-28T08:22:19;98158.63;;;-3.39;100.00
32747;BME280;19118;50.860;13.662;2023-02-28T08:27:20;98158.84;;;-2.96;100.00
32747;BME280;19118;50.860;13.662;2023-02-28T08:32:20;98161.81;;;-2.56;100.00
32747;BME280;19118;50.860;13.662;2023-02-28T08:37:20;98165.22;;;-2.26;100.00
32747;BME280;19118;50.860;13.662;2023-02-28T08:42:21;98171.28;;;-1.97;100.00
32747;BME280;19118;50.860;13.662;2023-02-28T08:47:21;98174.78;;;-1.98;100.00
32747;BME280;19118;50.860;13.662;2023-02-28T08:52:21;98170.09;;;-1.63;100.00
32747;BME280;19118;50.860;13.662;2023-02-28T08:57:22;98182.13;;;-1.90;100.00
32747;BME280;19118;50.860;13.662;2023-02-28T09:02:22;98181.03;;;-1.58;100.00
32747;BME280;19118;50.860;13.662;2023-02-28T09:07:22;98179.34;;;-1.59;100.00
32747;BME280;19118;50.860;13.662;2023-02-28T09:12:24;98179.72;;;-1.79;100.00
32747;BME280;19118;50.860;13.662;2023-02-28T09:17:25;98179.91;;;-1.82;100.00
32747;BME280;19118;50.860;13.662;2023-02-28T09:22:25;98187.13;;;-1.59;100.00
32747;BME280;19118;50.860;13.662;2023-02-28T09:27:26;98180.72;;;-1.39;100.00
32747;BME280;19118;50.860;13.662;2023-02-28T09:32:26;98184.00;;;-1.35;100.00
32747;BME280;19118;50.860;13.662;2023-02-28T09:37:26;98178.53;;;-1.04;98.34
32747;BME280;19118;50.860;13.662;2023-02-28T09:42:33;98193.63;;;-1.23;96.17
32747;BME280;19118;50.860;13.662;2023-02-28T09:47:40;98174.84;;;-1.00;93.79
32747;BME280;19118;50.860;13.662;2023-02-28T09:52:45;98181.31;;;-0.93;91.20
32747;BME280;19118;50.860;13.662;2023-02-28T09:57:50;98180.16;;;-0.74;91.24
32747;BME280;19118;50.860;13.662;2023-02-28T10:08:00;98190.41;;;-0.46;89.07
32747;BME280;19118;50.860;13.662;2023-02-28T10:13:05;98189.28;;;-0.96;86.67
32747;BME280;19118;50.860;13.662;2023-02-28T10:18:11;98179.72;;;-0.54;84.86
32747;BME280;19118;50.860;13.662;2023-02-28T10:23:17;98185.69;;;-0.26;84.92
32747;BME280;19118;50.860;13.662;2023-02-28T10:28:19;98195.72;;;0.05;82.51
32747;BME280;19118;50.860;13.662;2023-02-28T10:33:31;98189.63;;;0.94;80.80
32747;BME280;19118;50.860;13.662;2023-02-28T10:38:34;98185.50;;;0.78;77.11
32747;BME280;19118;50.860;13.662;2023-02-28T10:43:36;98180.69;;;1.22;76.98
32747;BME280;19118;50.860;13.662;2023-02-28T10:48:38;98183.13;;;1.12;76.19
32747;BME280;19118;50.860;13.662;2023-02-28T10:53:47;98188.81;;;2.69;75.19
32747;BME280;19118;50.860;13.662;2023-02-28T11:03:52;98181.03;;;1.17;77.26
32747;BME280;19118;50.860;13.662;2023-02-28T11:08:55;98180.19;;;0.80;79.38
32747;BME280;19118;50.860;13.662;2023-02-28T11:14:02;98174.09;;;0.68;78.28
32747;BME280;19118;50.860;13.662;2023-02-28T11:19:06;98171.47;;;0.55;79.40
32747;BME280;19118;50.860;13.662;2023-02-28T11:24:24;98161.31;;;0.89;78.26
32747;BME280;19118;50.860;13.662;2023-02-28T11:29:29;98155.47;;;1.22;78.36
32747;BME280;19118;50.860;13.662;2023-02-28T11:34:31;98152.88;;;1.22;79.20
32747;BME280;19118;50.860;13.662;2023-02-28T11:39:32;98140.88;;;1.43;77.65
32747;BME280;19118;50.860;13.662;2023-02-28T11:50:20;98144.53;;;0.93;77.50
32747;BME280;19118;50.860;13.662;2023-02-28T11:55:59;98146.19;;;0.45;75.85
32747;BME280;19118;50.860;13.662;2023-02-28T12:01:15;98143.91;;;0.40;78.59
32747;BME280;19118;50.860;13.662;2023-02-28T12:11:54;98134.75;;;0.22;81.14
32747;BME280;19118;50.860;13.662;2023-02-28T12:22:27;98136.63;;;0.45;80.82
32747;BME280;19118;50.860;13.662;2023-02-28T12:27:40;98138.72;;;0.40;79.38
32747;BME280;19118;50.860;13.662;2023-02-28T12:32:45;98136.19;;;0.64;81.03
32747;BME280;19118;50.860;13.662;2023-02-28T12:37:52;98126.13;;;0.47;80.90
32747;BME280;19118;50.860;13.662;2023-02-28T12:42:59;98127.72;;;0.73;78.23
32747;BME280;19118;50.860;13.662;2023-02-28T12:48:01;98120.69;;;0.86;77.53
32747;BME280;19118;50.860;13.662;2023-02-28T12:53:21;98126.00;;;0.61;76.60
32747;BME280;19118;50.860;13.662;2023-02-28T12:58:43;98115.50;;;0.50;80.46
32747;BME280;19118;50.860;13.662;2023-02-28T13:03:59;98122.28;;;0.40;80.73
32747;BME280;19118;50.860;13.662;2023-02-28T13:09:12;98118.31;;;0.47;84.23
32747;BME280;19118;50.860;13.662;2023-02-28T13:14:29;98114.78;;;0.48;82.28
32747;BME280;19118;50.860;13.662;2023-02-28T13:19:43;98102.25;;;0.53;80.90
32747;BME280;19118;50.860;13.662;2023-02-28T13:24:46;98111.47;;;0.46;80.29
32747;BME280;19118;50.860;13.662;2023-02-28T13:29:46;98109.53;;;0.61;79.88
32747;BME280;19118;50.860;13.662;2023-02-28T13:39:53;98110.28;;;0.86;81.95
32747;BME280;19118;50.860;13.662;2023-02-28T13:55:35;98091.91;;;1.60;75.55
32747;BME280;19118;50.860;13.662;2023-02-28T14:06:08;98086.19;;;1.20;78.90
32747;BME280;19118;50.860;13.662;2023-02-28T14:11:24;98082.19;;;1.27;79.18
32747;BME280;19118;50.860;13.662;2023-02-28T14:16:28;98096.66;;;1.07;78.11
32747;BME280;19118;50.860;13.662;2023-02-28T14:21:35;98083.38;;;0.99;82.14
32747;BME280;19118;50.860;13.662;2023-02-28T14:27:03;98089.09;;;0.80;82.74
32747;BME280;19118;50.860;13.662;2023-02-28T14:32:33;98077.00;;;1.03;82.69
32747;BME280;19118;50.860;13.662;2023-02-28T14:37:38;98083.31;;;0.87;83.53
32747;BME280;19118;50.860;13.662;2023-02-28T14:42:39;98081.97;;;0.45;84.91
32747;BME280;19118;50.860;13.662;2023-02-28T14:47:46;98076.94;;;0.18;87.42
32747;BME280;19118;50.860;13.662;2023-02-28T14:52:47;98065.44;;;0.46;88.81
32747;BME280;19118;50.860;13.662;2023-02-28T14:57:54;98075.22;;;0.43;88.01
32747;BME280;19118;50.860;13.662;2023-02-28T15:02:56;98072.56;;;0.19;91.67
32747;BME280;19118;50.860;13.662;2023-02-28T15:08:11;98071.88;;;0.04;91.41
32747;BME280;19118;50.860;13.662;2023-02-28T15:13:14;98062.41;;;-0.22;93.91
32747;BME280;19118;50.860;13.662;2023-02-28T15:18:23;98069.25;;;-0.47;97.01
32747;BME280;19118;50.860;13.662;2023-02-28T15:23:25;98070.88;;;-0.71;98.17
32747;BME280;19118;50.860;13.662;2023-02-28T15:28:27;98065.97;;;-0.89;100.00
32747;BME280;19118;50.860;13.662;2023-02-28T15:33:31;98065.13;;;-1.16;100.00
32747;BME280;19118;50.860;13.662;2023-02-28T15:38:34;98063.16;;;-1.39;100.00
32747;BME280;19118;50.860;13.662;2023-02-28T15:43:37;98066.34;;;-1.49;100.00
32747;BME280;19118;50.860;13.662;2023-02-28T15:48:50;98074.25;;;-1.64;100.00
32747;BME280;19118;50.860;13.662;2023-02-28T15:54:00;98068.09;;;-1.90;100.00
32747;BME280;19118;50.860;13.662;2023-02-28T15:59:05;98068.47;;;-2.11;100.00
32747;BME280;19118;50.860;13.662;2023-02-28T16:04:18;98085.13;;;-2.15;100.00
32747;BME280;19118;50.860;13.662;2023-02-28T16:09:18;98076.56;;;-2.31;100.00
32747;BME280;19118;50.860;13.662;2023-02-28T16:14:26;98083.59;;;-2.47;100.00
32747;BME280;19118;50.860;13.662;2023-02-28T16:19:27;98078.47;;;-2.63;100.00
32747;BME280;19118;50.860;13.662;2023-02-28T16:24:28;98074.38;;;-2.81;100.00
32747;BME280;19118;50.860;13.662;2023-02-28T16:29:34;98067.31;;;-2.94;100.00
32747;BME280;19118;50.860;13.662;2023-02-28T16:34:36;98075.06;;;-3.09;100.00
32747;BME280;19118;50.860;13.662;2023-02-28T16:39:36;98071.78;;;-3.27;100.00
32747;BME280;19118;50.860;13.662;2023-02-28T16:44:36;98077.78;;;-3.42;100.00
32747;BME280;19118;50.860;13.662;2023-02-28T16:49:37;98077.44;;;-3.52;100.00
32747;BME280;19118;50.860;13.662;2023-02-28T16:54:38;98074.03;;;-3.68;100.00
32747;BME280;19118;50.860;13.662;2023-02-28T16:59:39;98076.88;;;-3.73;100.00
32747;BME280;19118;50.860;13.662;2023-02-28T17:04:40;98071.25;;;-3.97;100.00
32747;BME280;19118;50.860;13.662;2023-02-28T17:09:40;98078.91;;;-4.11;100.00
32747;BME280;19118;50.860;13.662;2023-02-28T17:14:41;98086.19;;;-4.19;100.00
32747;BME280;19118;50.860;13.662;2023-02-28T17:19:42;98080.09;;;-4.34;100.00
32747;BME280;19118;50.860;13.662;2023-02-28T17:24:43;98085.78;;;-4.45;100.00
32747;BME280;19118;50.860;13.662;2023-02-28T17:29:45;98080.78;;;-4.48;100.00
32747;BME280;19118;50.860;13.662;2023-02-28T17:34:45;98081.78;;;-4.50;100.00
32747;BME280;19118;50.860;13.662;2023-02-28T17:39:46;98079.00;;;-4.63;100.00
32747;BME280;19118;50.860;13.662;2023-02-28T17:44:46;98081.47;;;-4.79;100.00
32747;BME280;19118;50.860;13.662;2023-02-28T17:49:47;98088.09;;;-4.90;100.00
32747;BME280;19118;50.860;13.662;2023-02-28T17:54:47;98085.91;;;-4.98;100.00
32747;BME280;19118;50.860;13.662;2023-02-28T17:59:47;98074.66;;;-4.97;100.00
32747;BME280;19118;50.860;13.662;2023-02-28T18:04:48;98063.72;;;-5.02;100.00
32747;BME280;19118;50.860;13.662;2023-02-28T18:09:48;98071.97;;;-5.13;100.00
32747;BME280;19118;50.860;13.662;2023-02-28T18:14:48;98067.66;;;-5.12;100.00
32747;BME280;19118;50.860;13.662;2023-02-28T18:19:49;98073.41;;;-5.24;100.00
32747;BME280;19118;50.860;13.662;2023-02-28T18:24:49;98062.69;;;-5.34;100.00
32747;BME280;19118;50.860;13.662;2023-02-28T18:29:49;98069.50;;;-5.50;100.00
32747;BME280;19118;50.860;13.662;2023-02-28T18:34:51;98059.34;;;-5.53;100.00
32747;BME280;19118;50.860;13.662;2023-02-28T18:39:52;98070.81;;;-5.61;100.00
32747;BME280;19118;50.860;13.662;2023-02-28T18:44:53;98059.91;;;-5.66;100.00
32747;BME280;19118;50.860;13.662;2023-02-28T18:49:53;98062.75;;;-5.72;100.00
32747;BME280;19118;50.860;13.662;2023-02-28T18:54:53;98064.16;;;-5.65;100.00
32747;BME280;19118;50.860;13.662;2023-02-28T18:59:54;98076.69;;;-5.76;100.00
32747;BME280;19118;50.860;13.662;2023-02-28T19:04:54;98070.91;;;-5.81;100.00
32747;BME280;19118;50.860;13.662;2023-02-28T19:09:54;98068.00;;;-5.92;100.00
32747;BME280;19118;50.860;13.662;2023-02-28T19:14:55;98071.13;;;-6.04;100.00
32747;BME280;19118;50.860;13.662;2023-02-28T19:19:55;98072.25;;;-6.10;100.00
32747;BME280;19118;50.860;13.662;2023-02-28T19:24:55;98073.50;;;-6.19;100.00
32747;BME280;19118;50.860;13.662;2023-02-28T19:29:56;98079.31;;;-6.34;100.00
32747;BME280;19118;50.860;13.662;2023-02-28T19:34:58;98078.13;;;-6.27;100.00
32747;BME280;19118;50.860;13.662;2023-02-28T19:39:58;98073.75;;;-6.25;100.00
32747;BME280;19118;50.860;13.662;2023-02-28T19:44:59;98079.19;;;-6.31;100.00
32747;BME280;19118;50.860;13.662;2023-02-28T19:49:59;98074.88;;;-6.30;100.00
32747;BME280;19118;50.860;13.662;2023-02-28T19:54:59;98073.91;;;-6.28;100.00
32747;BME280;19118;50.860;13.662;2023-02-28T20:00:00;98076.09;;;-6.39;100.00
32747;BME280;19118;50.860;13.662;2023-02-28T20:05:00;98084.34;;;-6.51;100.00
32747;BME280;19118;50.860;13.662;2023-02-28T20:10:01;98096.44;;;-6.53;100.00
32747;BME280;19118;50.860;13.662;2023-02-28T20:15:01;98083.50;;;-6.52;100.00
32747;BME280;19118;50.860;13.662;2023-02-28T20:20:01;98090.00;;;-6.43;100.00
32747;BME280;19118;50.860;13.662;2023-02-28T20:25:03;98085.69;;;-6.42;100.00
32747;BME280;19118;50.860;13.662;2023-02-28T20:30:04;98084.97;;;-6.46;100.00
32747;BME280;19118;50.860;13.662;2023-02-28T20:35:06;98085.09;;;-6.49;100.00
32747;BME280;19118;50.860;13.662;2023-02-28T20:40:08;98088.44;;;-6.47;100.00
32747;BME280;19118;50.860;13.662;2023-02-28T20:45:09;98085.38;;;-6.55;100.00
32747;BME280;19118;50.860;13.662;2023-02-28T20:50:10;98083.97;;;-6.62;100.00
32747;BME280;19118;50.860;13.662;2023-02-28T20:55:12;98080.38;;;-6.79;100.00
32747;BME280;19118;50.860;13.662;2023-02-28T21:00:13;98082.59;;;-6.91;100.00
32747;BME280;19118;50.860;13.662;2023-02-28T21:05:15;98084.47;;;-6.95;100.00
32747;BME280;19118;50.860;13.662;2023-02-28T21:10:16;98089.47;;;-7.12;100.00
32747;BME280;19118;50.860;13.662;2023-02-28T21:15:16;98087.19;;;-7.20;100.00
32747;BME280;19118;50.860;13.662;2023-02-28T21:20:17;98082.91;;;-7.19;100.00
32747;BME280;19118;50.860;13.662;2023-02-28T21:25:21;98095.09;;;-7.24;100.00
32747;BME280;19118;50.860;13.662;2023-02-28T21:30:21;98088.94;;;-7.42;100.00
32747;BME280;19118;50.860;13.662;2023-02-28T21:35:22;98093.53;;;-7.50;100.00
32747;BME280;19118;50.860;13.662;2023-02-28T21:40:22;98091.38;;;-7.61;100.00
32747;BME280;19118;50.860;13.662;2023-02-28T21:45:23;98101.91;;;-7.67;100.00
32747;BME280;19118;50.860;13.662;2023-02-28T21:50:23;98099.53;;;-7.73;100.00
32747;BME280;19118;50.860;13.662;2023-02-28T21:55:23;98103.00;;;-7.74;100.00
32747;BME280;19118;50.860;13.662;2023-02-28T22:00:24;98094.66;;;-7.79;100.00
32747;BME280;19118;50.860;13.662;2023-02-28T22:05:24;98093.97;;;-7.84;100.00
32747;BME280;19118;50.860;13.662;2023-02-28T22:10:25;98089.78;;;-7.87;100.00
32747;BME280;19118;50.860;13.662;2023-02-28T22:15:25;98091.53;;;-7.87;100.00
32747;BME280;19118;50.860;13.662;2023-02-28T22:20:25;98101.22;;;-7.96;100.00
32747;BME280;19118;50.860;13.662;2023-02-28T22:25:26;98092.75;;;-7.98;100.00
32747;BME280;19118;50.860;13.662;2023-02-28T22:30:26;98101.53;;;-8.03;100.00
32747;BME280;19118;50.860;13.662;2023-02-28T22:35:27;98096.50;;;-8.06;100.00
32747;BME280;19118;50.860;13.662;2023-02-28T22:40:27;98072.91;;;-8.16;100.00
32747;BME280;19118;50.860;13.662;2023-02-28T22:45:28;98078.84;;;-8.14;100.00
32747;BME280;19118;50.860;13.662;2023-02-28T22:50:28;98077.31;;;-8.19;100.00
32747;BME280;19118;50.860;13.662;2023-02-28T22:55:29;98086.97;;;-8.26;100.00
32747;BME280;19118;50.860;13.662;2023-02-28T23:00:29;98092.63;;;-8.18;100.00
32747;BME280;19118;50.860;13.662;2023-02-28T23:05:29;98090.66;;;-8.10;100.00
32747;BME280;19118;50.860;13.662;2023-02-28T23:10:30;98092.75;;;-7.98;100.00
32747;BME280;19118;50.860;13.662;2023-02-28T23:15:30;98097.56;;;-7.88;100.00
32747;BME280;19118;50.860;13.662;2023-02-28T23:20:31;98091.72;;;-7.70;100.00
32747;BME280;19118;50.860;13.662;2023-02-28T23:25:31;98101.34;;;-7.75;100.00
32747;BME280;19118;50.860;13.662;2023-02-28T23:30:32;98085.50;;;-7.86;100.00
32747;BME280;19118;50.860;13.662;2023-02-28T23:35:33;98092.31;;;-7.85;100.00
32747;BME280;19118;50.860;13.662;2023-02-28T23:40:33;98095.66;;;-7.83;100.00
32747;BME280;19118;50.860;13.662;2023-02-28T23:45:33;98091.47;;;-7.86;100.00
32747;BME280;19118;50.860;13.662;2023-02-28T23:50:36;98088.41;;;-7.96;100.00
32747;BME280;19118;50.860;13.662;2023-02-28T23:55:36;98089.88;;;-8.12;100.00
